Lockhart, AL (36455)

8:55 PM CDT on July 30, 2015 (GMT -0500)
Florala | | Change Station
CLOSE
Current Station
Airport
Location: Florala,
Elevation: 315 ft
Nearby Weather Stations

Elev 315 ft 31.04 °N, 86.31 °W | Updated 47 minutes ago

Light Thunderstorms and Rain
Light Thunderstorm Rain Mist
77 °F
Feels Like 77 °F
N
0
Wind Variable Wind from North

Today
High -- | Low -- °F
--% Chance of Precip.
Yesterday
High -- | Low -- °F
Precip. -- in
6:01 AM 7:42 PM
Full, 100% visible
Pressure 29.97 in
Visibility 4.0 miles
Clouds Scattered Clouds 1200 ft
Mostly Cloudy 3000 ft
Mostly Cloudy 4000 ft
Dew Point 75 °F
Humidity 94%
Rainfall 0.00 in
Snow Depth Not available.
UV 0 out of 12
Pollen 1.80 out of 12
Air Quality Not available.
Flu Activity Not available.
SPECI K0J4 310108Z AUTO 00000KT 4SM -TSRA BR SCT012 BKN030 BKN040 25/24 A2997 RMK AO2 PNO $

More Conditions Fewer Conditions

Pressure 29.97 in
Visibility 4.0 miles
Clouds Scattered Clouds 1200 ft
Mostly Cloudy 3000 ft
Mostly Cloudy 4000 ft
Dew Point 75 °F
Humidity 94%
Rainfall 0.00 in
Snow Depth Not available.
UV 0 out of 12
Pollen 1.80 out of 12
Air Quality Not available.
Flu Activity Not available.
SPECI K0J4 310108Z AUTO 00000KT 4SM -TSRA BR SCT012 BKN030 BKN040 25/24 A2997 RMK AO2 PNO $

More Conditions Fewer Conditions

10-Day Weather Forecast

×

Almanac

Astronomy

Jul. 30, 2015 Rise Set
Actual Time
Civil Twilight
Nautical Twilight
Astronomical Twilight
Moon
Length of Visible Light
Length of Day
Tomorrow will be .
, % of the Moon is Illuminated

Today's Extremes

State Highs State Lows

Community

WunderPhotos

Upload Photos

1,842,568 photos uploaded!

WunderBlogs® & News

Nearby

Air Quality

  Air Quality AQ Index Pollutant
Not available.

Snow Depth

Station Depth Elevation

Earthquake Activity

City Distance Mag. Time & Date
Minimum magnitude displayed is 2.5.

Coastal Water Temperatures

Place Temperature

Stations

Nearby Weather Stations

Station Location Temp. Windchill Dew Point Humidity Wind Precip. Elev Updated Type